sensor_id;sensor_type;location;lat;lon;timestamp;pressure;altitude;pressure_sealevel;temperature;humidity
69257;BME280;56376;53.356;-1.748;2022-10-16T00:00:30;97850.88;;;9.44;96.77
69257;BME280;56376;53.356;-1.748;2022-10-16T00:02:55;97843.16;;;9.42;96.97
69257;BME280;56376;53.356;-1.748;2022-10-16T00:05:21;97854.50;;;9.41;97.29
69257;BME280;56376;53.356;-1.748;2022-10-16T00:07:46;97851.81;;;9.43;97.53
69257;BME280;56376;53.356;-1.748;2022-10-16T00:10:11;97850.06;;;9.43;98.02
69257;BME280;56376;53.356;-1.748;2022-10-16T00:12:37;97841.47;;;9.41;98.55
69257;BME280;56376;53.356;-1.748;2022-10-16T00:15:02;97850.25;;;9.40;99.44
69257;BME280;56376;53.356;-1.748;2022-10-16T00:17:29;97842.41;;;9.40;99.57
69257;BME280;56376;53.356;-1.748;2022-10-16T00:19:55;97841.66;;;9.38;99.63
69257;BME280;56376;53.356;-1.748;2022-10-16T00:22:20;97841.84;;;9.35;99.75
69257;BME280;56376;53.356;-1.748;2022-10-16T00:24:45;97862.59;;;9.37;99.90
69257;BME280;56376;53.356;-1.748;2022-10-16T00:27:11;97862.69;;;9.35;99.64
69257;BME280;56376;53.356;-1.748;2022-10-16T00:29:36;97855.78;;;9.34;99.95
69257;BME280;56376;53.356;-1.748;2022-10-16T00:32:02;97862.69;;;9.35;99.98
69257;BME280;56376;53.356;-1.748;2022-10-16T00:34:27;97856.63;;;9.35;99.99
69257;BME280;56376;53.356;-1.748;2022-10-16T00:36:52;97857.47;;;9.35;100.00
69257;BME280;56376;53.356;-1.748;2022-10-16T00:39:18;97866.97;;;9.36;99.49
69257;BME280;56376;53.356;-1.748;2022-10-16T00:41:44;97862.69;;;9.35;98.50
69257;BME280;56376;53.356;-1.748;2022-10-16T00:47:18;97862.69;;;9.35;98.99
69257;BME280;56376;53.356;-1.748;2022-10-16T00:49:46;97874.84;;;9.35;99.01
69257;BME280;56376;53.356;-1.748;2022-10-16T00:52:13;97879.25;;;9.34;98.09
69257;BME280;56376;53.356;-1.748;2022-10-16T00:54:39;97876.81;;;9.31;97.44
69257;BME280;56376;53.356;-1.748;2022-10-16T00:57:06;97877.84;;;9.28;97.70
69257;BME280;56376;53.356;-1.748;2022-10-16T00:59:35;97883.97;;;9.27;97.75
69257;BME280;56376;53.356;-1.748;2022-10-16T01:02:02;97891.78;;;9.27;98.03
69257;BME280;56376;53.356;-1.748;2022-10-16T01:04:35;97890.94;;;9.27;98.06
69257;BME280;56376;53.356;-1.748;2022-10-16T01:10:09;97896.16;;;9.27;97.86
69257;BME280;56376;53.356;-1.748;2022-10-16T01:12:42;97902.22;;;9.27;98.44
69257;BME280;56376;53.356;-1.748;2022-10-16T01:18:11;97914.38;;;9.27;97.26
69257;BME280;56376;53.356;-1.748;2022-10-16T01:20:54;97902.28;;;9.26;97.08
69257;BME280;56376;53.356;-1.748;2022-10-16T01:28:29;97912.13;;;9.21;96.18
69257;BME280;56376;53.356;-1.748;2022-10-16T01:30:59;97922.56;;;9.21;96.03
69257;BME280;56376;53.356;-1.748;2022-10-16T01:33:32;97927.69;;;9.22;95.93
69257;BME280;56376;53.356;-1.748;2022-10-16T01:36:06;97931.97;;;9.23;95.56
69257;BME280;56376;53.356;-1.748;2022-10-16T01:38:35;97928.41;;;9.24;95.11
69257;BME280;56376;53.356;-1.748;2022-10-16T01:41:09;97929.28;;;9.25;94.65
69257;BME280;56376;53.356;-1.748;2022-10-16T01:43:38;97933.63;;;9.24;94.53
69257;BME280;56376;53.356;-1.748;2022-10-16T01:46:06;97941.44;;;9.24;94.71
69257;BME280;56376;53.356;-1.748;2022-10-16T01:48:34;97936.34;;;9.23;94.69
69257;BME280;56376;53.356;-1.748;2022-10-16T01:51:07;97954.59;;;9.23;94.28
69257;BME280;56376;53.356;-1.748;2022-10-16T01:53:34;97955.50;;;9.22;94.29
69257;BME280;56376;53.356;-1.748;2022-10-16T01:56:03;97945.94;;;9.22;93.96
69257;BME280;56376;53.356;-1.748;2022-10-16T01:58:34;97955.66;;;9.19;93.99
69257;BME280;56376;53.356;-1.748;2022-10-16T02:01:02;97964.41;;;9.18;94.53
69257;BME280;56376;53.356;-1.748;2022-10-16T02:03:29;97955.78;;;9.17;94.47
69257;BME280;56376;53.356;-1.748;2022-10-16T02:05:57;97967.03;;;9.18;94.86
69257;BME280;56376;53.356;-1.748;2022-10-16T02:08:27;97968.03;;;9.15;94.81
69257;BME280;56376;53.356;-1.748;2022-10-16T02:10:55;97980.97;;;9.17;94.29
69257;BME280;56376;53.356;-1.748;2022-10-16T02:13:44;97986.16;;;9.17;94.26
69257;BME280;56376;53.356;-1.748;2022-10-16T02:16:11;97985.25;;;9.18;94.05
69257;BME280;56376;53.356;-1.748;2022-10-16T02:18:37;97997.44;;;9.17;93.93
69257;BME280;56376;53.356;-1.748;2022-10-16T02:21:17;97996.59;;;9.17;93.52
69257;BME280;56376;53.356;-1.748;2022-10-16T02:24:16;97993.06;;;9.18;93.38
69257;BME280;56376;53.356;-1.748;2022-10-16T02:26:54;98002.56;;;9.19;92.95
69257;BME280;56376;53.356;-1.748;2022-10-16T02:29:25;98014.69;;;9.20;92.71
69257;BME280;56376;53.356;-1.748;2022-10-16T02:31:55;98014.75;;;9.18;92.21
69257;BME280;56376;53.356;-1.748;2022-10-16T02:34:24;98019.13;;;9.18;92.63
69257;BME280;56376;53.356;-1.748;2022-10-16T02:36:52;98027.84;;;9.17;93.11
69257;BME280;56376;53.356;-1.748;2022-10-16T02:39:19;98034.75;;;9.18;93.23
69257;BME280;56376;53.356;-1.748;2022-10-16T02:41:45;98042.47;;;9.19;93.44
69257;BME280;56376;53.356;-1.748;2022-10-16T02:44:10;98048.53;;;9.20;93.42
69257;BME280;56376;53.356;-1.748;2022-10-16T02:46:36;98058.03;;;9.21;93.72
69257;BME280;56376;53.356;-1.748;2022-10-16T02:49:02;98051.03;;;9.21;93.89
69257;BME280;56376;53.356;-1.748;2022-10-16T02:51:27;98047.53;;;9.22;93.41
69257;BME280;56376;53.356;-1.748;2022-10-16T02:53:52;98058.78;;;9.23;93.34
69257;BME280;56376;53.356;-1.748;2022-10-16T02:56:18;98066.59;;;9.23;92.64
69257;BME280;56376;53.356;-1.748;2022-10-16T02:58:44;98069.28;;;9.21;93.42
69257;BME280;56376;53.356;-1.748;2022-10-16T03:01:09;98073.66;;;9.21;93.86
69257;BME280;56376;53.356;-1.748;2022-10-16T03:03:34;98083.31;;;9.19;94.50
69257;BME280;56376;53.356;-1.748;2022-10-16T03:06:00;98089.38;;;9.19;94.79
69257;BME280;56376;53.356;-1.748;2022-10-16T03:08:25;98091.22;;;9.17;95.00
69257;BME280;56376;53.356;-1.748;2022-10-16T03:10:51;98084.25;;;9.18;94.87
69257;BME280;56376;53.356;-1.748;2022-10-16T03:13:16;98099.88;;;9.18;94.64
69257;BME280;56376;53.356;-1.748;2022-10-16T03:15:43;98106.69;;;9.20;94.69
69257;BME280;56376;53.356;-1.748;2022-10-16T03:18:08;98119.72;;;9.20;94.80
69257;BME280;56376;53.356;-1.748;2022-10-16T03:20:33;98117.00;;;9.22;95.04
69257;BME280;56376;53.356;-1.748;2022-10-16T03:22:59;98126.69;;;9.20;94.95
69257;BME280;56376;53.356;-1.748;2022-10-16T03:25:24;98135.34;;;9.20;95.18
69257;BME280;56376;53.356;-1.748;2022-10-16T03:27:50;98141.56;;;9.18;94.92
69257;BME280;56376;53.356;-1.748;2022-10-16T03:30:15;98148.63;;;9.16;95.29
69257;BME280;56376;53.356;-1.748;2022-10-16T03:32:41;98144.41;;;9.13;95.75
69257;BME280;56376;53.356;-1.748;2022-10-16T03:35:07;98157.44;;;9.13;96.29
69257;BME280;56376;53.356;-1.748;2022-10-16T03:37:32;98154.06;;;9.11;96.46
69257;BME280;56376;53.356;-1.748;2022-10-16T03:39:58;98168.75;;;9.12;96.84
69257;BME280;56376;53.356;-1.748;2022-10-16T03:42:24;98165.31;;;9.12;96.48
69257;BME280;56376;53.356;-1.748;2022-10-16T03:44:49;98187.16;;;9.09;96.26
69257;BME280;56376;53.356;-1.748;2022-10-16T03:47:15;98189.84;;;9.07;96.26
69257;BME280;56376;53.356;-1.748;2022-10-16T03:49:40;98200.28;;;9.07;96.42
69257;BME280;56376;53.356;-1.748;2022-10-16T03:52:06;98209.00;;;9.06;96.43
69257;BME280;56376;53.356;-1.748;2022-10-16T03:54:31;98211.59;;;9.06;96.58
69257;BME280;56376;53.356;-1.748;2022-10-16T03:56:56;98226.41;;;9.06;96.78
69257;BME280;56376;53.356;-1.748;2022-10-16T03:59:22;98214.38;;;9.03;96.63
69257;BME280;56376;53.356;-1.748;2022-10-16T04:01:47;98233.38;;;9.05;96.79
69257;BME280;56376;53.356;-1.748;2022-10-16T04:04:13;98226.56;;;9.03;96.57
69257;BME280;56376;53.356;-1.748;2022-10-16T04:06:38;98236.97;;;9.03;96.38
69257;BME280;56376;53.356;-1.748;2022-10-16T04:09:03;98239.75;;;9.00;96.43
69257;BME280;56376;53.356;-1.748;2022-10-16T04:11:29;98250.22;;;8.98;96.30
69257;BME280;56376;53.356;-1.748;2022-10-16T04:13:55;98257.81;;;9.03;95.09
69257;BME280;56376;53.356;-1.748;2022-10-16T04:16:20;98258.19;;;8.95;94.76
69257;BME280;56376;53.356;-1.748;2022-10-16T04:18:46;98268.78;;;8.92;95.26
69257;BME280;56376;53.356;-1.748;2022-10-16T04:21:11;98280.25;;;8.88;95.54
69257;BME280;56376;53.356;-1.748;2022-10-16T04:23:36;98283.00;;;8.85;95.70
69257;BME280;56376;53.356;-1.748;2022-10-16T04:26:02;98294.41;;;8.82;95.96
69257;BME280;56376;53.356;-1.748;2022-10-16T04:28:28;98306.66;;;8.80;96.22
69257;BME280;56376;53.356;-1.748;2022-10-16T04:30:53;98298.91;;;8.79;96.40
69257;BME280;56376;53.356;-1.748;2022-10-16T04:33:19;98312.03;;;8.77;96.23
69257;BME280;56376;53.356;-1.748;2022-10-16T04:35:44;98327.03;;;8.72;95.66
69257;BME280;56376;53.356;-1.748;2022-10-16T04:38:10;98327.91;;;8.71;95.91
69257;BME280;56376;53.356;-1.748;2022-10-16T04:40:35;98334.97;;;8.69;95.78
69257;BME280;56376;53.356;-1.748;2022-10-16T04:43:04;98334.22;;;8.67;95.65
69257;BME280;56376;53.356;-1.748;2022-10-16T04:45:30;98345.47;;;8.68;95.91
69257;BME280;56376;53.356;-1.748;2022-10-16T04:47:59;98351.50;;;8.68;96.00
69257;BME280;56376;53.356;-1.748;2022-10-16T04:50:24;98356.78;;;8.66;96.07
69257;BME280;56376;53.356;-1.748;2022-10-16T04:52:50;98358.53;;;8.66;95.81
69257;BME280;56376;53.356;-1.748;2022-10-16T04:55:15;98362.91;;;8.65;95.67
69257;BME280;56376;53.356;-1.748;2022-10-16T04:57:41;98365.66;;;8.62;95.79
69257;BME280;56376;53.356;-1.748;2022-10-16T05:00:07;98372.69;;;8.60;94.57
69257;BME280;56376;53.356;-1.748;2022-10-16T05:02:33;98371.91;;;8.58;94.34
69257;BME280;56376;53.356;-1.748;2022-10-16T05:04:58;98381.44;;;8.59;94.07
69257;BME280;56376;53.356;-1.748;2022-10-16T05:07:24;98383.31;;;8.56;93.95
69257;BME280;56376;53.356;-1.748;2022-10-16T05:09:49;98394.72;;;8.53;94.30
69257;BME280;56376;53.356;-1.748;2022-10-16T05:12:15;98396.53;;;8.51;94.22
69257;BME280;56376;53.356;-1.748;2022-10-16T05:14:40;98402.72;;;8.49;93.74
69257;BME280;56376;53.356;-1.748;2022-10-16T05:17:05;98408.06;;;8.45;93.87
69257;BME280;56376;53.356;-1.748;2022-10-16T05:19:31;98415.09;;;8.43;93.77
69257;BME280;56376;53.356;-1.748;2022-10-16T05:21:56;98419.59;;;8.40;93.69
69257;BME280;56376;53.356;-1.748;2022-10-16T05:24:22;98423.16;;;8.37;93.88
69257;BME280;56376;53.356;-1.748;2022-10-16T05:26:48;98430.25;;;8.34;93.37
69257;BME280;56376;53.356;-1.748;2022-10-16T05:29:13;98446.00;;;8.31;92.88
69257;BME280;56376;53.356;-1.748;2022-10-16T05:31:39;98442.69;;;8.27;92.48
69257;BME280;56376;53.356;-1.748;2022-10-16T05:34:04;98452.38;;;8.23;92.53
69257;BME280;56376;53.356;-1.748;2022-10-16T05:36:30;98457.66;;;8.22;92.73
69257;BME280;56376;53.356;-1.748;2022-10-16T05:38:55;98452.59;;;8.19;92.80
69257;BME280;56376;53.356;-1.748;2022-10-16T05:41:20;98456.16;;;8.16;92.54
69257;BME280;56376;53.356;-1.748;2022-10-16T05:43:49;98459.03;;;8.10;92.62
69257;BME280;56376;53.356;-1.748;2022-10-16T05:46:16;98460.84;;;8.08;92.57
69257;BME280;56376;53.356;-1.748;2022-10-16T05:48:41;98461.00;;;8.05;92.41
69257;BME280;56376;53.356;-1.748;2022-10-16T05:51:09;98465.50;;;8.01;92.48
69257;BME280;56376;53.356;-1.748;2022-10-16T05:53:37;98481.16;;;8.00;92.29
69257;BME280;56376;53.356;-1.748;2022-10-16T05:56:04;98482.25;;;7.94;91.91
69257;BME280;56376;53.356;-1.748;2022-10-16T05:58:34;98486.72;;;7.91;91.74
69257;BME280;56376;53.356;-1.748;2022-10-16T06:01:06;98500.78;;;7.87;91.46
69257;BME280;56376;53.356;-1.748;2022-10-16T06:03:33;98509.59;;;7.83;91.27
69257;BME280;56376;53.356;-1.748;2022-10-16T06:05:59;98514.16;;;7.77;91.37
69257;BME280;56376;53.356;-1.748;2022-10-16T06:08:24;98515.97;;;7.75;91.52
69257;BME280;56376;53.356;-1.748;2022-10-16T06:11:01;98514.41;;;7.71;91.63
69257;BME280;56376;53.356;-1.748;2022-10-16T06:13:27;98513.75;;;7.66;91.84
69257;BME280;56376;53.356;-1.748;2022-10-16T06:15:52;98520.69;;;7.66;91.52
69257;BME280;56376;53.356;-1.748;2022-10-16T06:18:17;98519.97;;;7.62;91.52
69257;BME280;56376;53.356;-1.748;2022-10-16T06:20:43;98528.88;;;7.56;91.70
69257;BME280;56376;53.356;-1.748;2022-10-16T06:23:08;98539.41;;;7.53;91.78
69257;BME280;56376;53.356;-1.748;2022-10-16T06:25:33;98544.63;;;7.52;92.02
69257;BME280;56376;53.356;-1.748;2022-10-16T06:27:59;98550.00;;;7.47;91.62
69257;BME280;56376;53.356;-1.748;2022-10-16T06:30:24;98552.78;;;7.43;91.78
69257;BME280;56376;53.356;-1.748;2022-10-16T06:32:50;98556.34;;;7.40;92.00
69257;BME280;56376;53.356;-1.748;2022-10-16T06:35:15;98554.84;;;7.34;91.38
69257;BME280;56376;53.356;-1.748;2022-10-16T06:37:40;98561.84;;;7.32;91.54
69257;BME280;56376;53.356;-1.748;2022-10-16T06:40:06;98566.25;;;7.30;91.64
69257;BME280;56376;53.356;-1.748;2022-10-16T06:42:32;98572.47;;;7.26;91.51
69257;BME280;56376;53.356;-1.748;2022-10-16T06:44:57;98574.41;;;7.21;91.65
69257;BME280;56376;53.356;-1.748;2022-10-16T06:47:23;98584.84;;;7.20;91.47
69257;BME280;56376;53.356;-1.748;2022-10-16T06:49:48;98587.56;;;7.17;91.62
69257;BME280;56376;53.356;-1.748;2022-10-16T06:52:14;98588.41;;;7.17;91.84
69257;BME280;56376;53.356;-1.748;2022-10-16T06:54:39;98594.50;;;7.16;91.78
69257;BME280;56376;53.356;-1.748;2022-10-16T06:57:04;98595.41;;;7.15;92.28
69257;BME280;56376;53.356;-1.748;2022-10-16T06:59:30;98605.78;;;7.15;92.75
69257;BME280;56376;53.356;-1.748;2022-10-16T07:01:55;98614.38;;;7.17;92.76
69257;BME280;56376;53.356;-1.748;2022-10-16T07:04:21;98616.84;;;7.20;92.88
69257;BME280;56376;53.356;-1.748;2022-10-16T07:06:46;98625.44;;;7.22;92.80
69257;BME280;56376;53.356;-1.748;2022-10-16T07:09:12;98627.16;;;7.23;93.17
69257;BME280;56376;53.356;-1.748;2022-10-16T07:11:39;98638.31;;;7.25;93.67
69257;BME280;56376;53.356;-1.748;2022-10-16T07:14:14;98645.13;;;7.28;93.79
69257;BME280;56376;53.356;-1.748;2022-10-16T07:16:40;98639.94;;;7.28;93.59
69257;BME280;56376;53.356;-1.748;2022-10-16T07:19:05;98645.06;;;7.31;93.94
69257;BME280;56376;53.356;-1.748;2022-10-16T07:21:33;98657.97;;;7.32;94.34
69257;BME280;56376;53.356;-1.748;2022-10-16T07:24:01;98658.88;;;7.31;94.11
69257;BME280;56376;53.356;-1.748;2022-10-16T07:26:29;98651.00;;;7.33;94.56
69257;BME280;56376;53.356;-1.748;2022-10-16T07:28:55;98658.75;;;7.34;94.85
69257;BME280;56376;53.356;-1.748;2022-10-16T07:31:22;98667.28;;;7.38;94.53
69257;BME280;56376;53.356;-1.748;2022-10-16T07:33:49;98666.31;;;7.41;94.33
69257;BME280;56376;53.356;-1.748;2022-10-16T07:36:16;98676.63;;;7.44;94.36
69257;BME280;56376;53.356;-1.748;2022-10-16T07:38:43;98691.16;;;7.48;94.31
69257;BME280;56376;53.356;-1.748;2022-10-16T07:41:15;98700.56;;;7.52;94.38
69257;BME280;56376;53.356;-1.748;2022-10-16T07:43:48;98696.09;;;7.55;94.07
69257;BME280;56376;53.356;-1.748;2022-10-16T07:46:14;98698.59;;;7.58;94.29
69257;BME280;56376;53.356;-1.748;2022-10-16T07:48:40;98705.31;;;7.64;94.28
69257;BME280;56376;53.356;-1.748;2022-10-16T07:51:06;98697.38;;;7.67;93.71
69257;BME280;56376;53.356;-1.748;2022-10-16T07:53:33;98712.81;;;7.72;93.16
69257;BME280;56376;53.356;-1.748;2022-10-16T07:56:06;98715.28;;;7.75;92.13
69257;BME280;56376;53.356;-1.748;2022-10-16T07:58:33;98715.91;;;7.82;92.16
69257;BME280;56376;53.356;-1.748;2022-10-16T08:01:02;98725.06;;;7.92;92.04
69257;BME280;56376;53.356;-1.748;2022-10-16T08:03:28;98722.03;;;8.02;90.74
69257;BME280;56376;53.356;-1.748;2022-10-16T08:05:53;98726.78;;;8.15;90.67
69257;BME280;56376;53.356;-1.748;2022-10-16T08:08:19;98728.72;;;8.32;89.87
69257;BME280;56376;53.356;-1.748;2022-10-16T08:10:45;98735.16;;;8.45;89.58
69257;BME280;56376;53.356;-1.748;2022-10-16T08:13:10;98739.72;;;8.60;88.47
69257;BME280;56376;53.356;-1.748;2022-10-16T08:15:36;98745.22;;;8.75;88.04
69257;BME280;56376;53.356;-1.748;2022-10-16T08:18:03;98740.16;;;8.92;86.76
69257;BME280;56376;53.356;-1.748;2022-10-16T08:20:31;98743.84;;;9.07;85.65
69257;BME280;56376;53.356;-1.748;2022-10-16T08:22:57;98756.31;;;9.21;85.06
69257;BME280;56376;53.356;-1.748;2022-10-16T08:25:24;98752.19;;;9.36;84.16
69257;BME280;56376;53.356;-1.748;2022-10-16T08:27:49;98753.28;;;9.50;84.05
69257;BME280;56376;53.356;-1.748;2022-10-16T08:30:18;98765.53;;;9.67;82.98
69257;BME280;56376;53.356;-1.748;2022-10-16T08:32:44;98763.03;;;9.85;82.72
69257;BME280;56376;53.356;-1.748;2022-10-16T08:35:11;98761.34;;;10.03;81.73
69257;BME280;56376;53.356;-1.748;2022-10-16T08:37:37;98757.88;;;10.21;81.08
69257;BME280;56376;53.356;-1.748;2022-10-16T08:40:05;98767.25;;;10.44;79.96
69257;BME280;56376;53.356;-1.748;2022-10-16T08:42:35;98764.53;;;10.65;78.94
69257;BME280;56376;53.356;-1.748;2022-10-16T08:50:12;98775.47;;;11.25;75.25
69257;BME280;56376;53.356;-1.748;2022-10-16T08:52:43;98779.75;;;11.43;73.77
69257;BME280;56376;53.356;-1.748;2022-10-16T08:55:29;98790.00;;;11.64;73.07
69257;BME280;56376;53.356;-1.748;2022-10-16T08:57:55;98780.38;;;11.82;71.72
69257;BME280;56376;53.356;-1.748;2022-10-16T09:00:21;98780.31;;;11.99;70.42
69257;BME280;56376;53.356;-1.748;2022-10-16T09:02:56;98788.88;;;12.19;70.76
69257;BME280;56376;53.356;-1.748;2022-10-16T09:05:42;98791.41;;;12.36;68.92
69257;BME280;56376;53.356;-1.748;2022-10-16T09:10:49;98802.78;;;12.67;69.16
69257;BME280;56376;53.356;-1.748;2022-10-16T09:18:45;98797.56;;;13.13;65.44
69257;BME280;56376;53.356;-1.748;2022-10-16T09:21:25;98789.72;;;13.27;65.88
69257;BME280;56376;53.356;-1.748;2022-10-16T09:23:54;98800.06;;;13.45;64.69
69257;BME280;56376;53.356;-1.748;2022-10-16T09:26:22;98794.09;;;13.57;64.21
69257;BME280;56376;53.356;-1.748;2022-10-16T09:28:48;98796.06;;;13.68;61.84
69257;BME280;56376;53.356;-1.748;2022-10-16T09:31:17;98809.66;;;13.74;62.11
69257;BME280;56376;53.356;-1.748;2022-10-16T09:33:43;98814.44;;;13.82;62.07
69257;BME280;56376;53.356;-1.748;2022-10-16T09:36:11;98818.94;;;13.94;62.19
69257;BME280;56376;53.356;-1.748;2022-10-16T09:38:38;98806.94;;;14.04;60.73
69257;BME280;56376;53.356;-1.748;2022-10-16T09:41:19;98823.06;;;14.13;61.67
69257;BME280;56376;53.356;-1.748;2022-10-16T09:49:02;98829.63;;;14.05;62.45
69257;BME280;56376;53.356;-1.748;2022-10-16T09:51:36;98831.31;;;13.92;62.84
69257;BME280;56376;53.356;-1.748;2022-10-16T09:56:38;98831.84;;;13.54;65.00
69257;BME280;56376;53.356;-1.748;2022-10-16T09:59:18;98838.50;;;13.46;65.41
69257;BME280;56376;53.356;-1.748;2022-10-16T10:01:47;98850.34;;;13.37;64.63
69257;BME280;56376;53.356;-1.748;2022-10-16T10:04:13;98867.03;;;13.36;64.08
69257;BME280;56376;53.356;-1.748;2022-10-16T10:06:50;98868.53;;;13.40;64.47
69257;BME280;56376;53.356;-1.748;2022-10-16T10:16:43;98875.78;;;13.81;61.98
69257;BME280;56376;53.356;-1.748;2022-10-16T10:19:21;98879.91;;;13.99;61.50
69257;BME280;56376;53.356;-1.748;2022-10-16T10:21:48;98898.28;;;14.14;60.34
69257;BME280;56376;53.356;-1.748;2022-10-16T10:24:15;98890.59;;;14.25;60.87
69257;BME280;56376;53.356;-1.748;2022-10-16T10:26:56;98899.59;;;14.35;60.18
69257;BME280;56376;53.356;-1.748;2022-10-16T10:30:20;98900.06;;;14.42;58.50
69257;BME280;56376;53.356;-1.748;2022-10-16T10:32:32;98909.91;;;14.53;58.51
69257;BME280;56376;53.356;-1.748;2022-10-16T10:38:16;98911.03;;;14.77;57.17
69257;BME280;56376;53.356;-1.748;2022-10-16T10:47:08;98918.88;;;14.91;56.12
69257;BME280;56376;53.356;-1.748;2022-10-16T10:57:59;98931.16;;;14.91;54.09
69257;BME280;56376;53.356;-1.748;2022-10-16T11:03:23;98948.25;;;14.98;54.43
69257;BME280;56376;53.356;-1.748;2022-10-16T11:08:50;98953.47;;;15.12;53.23
69257;BME280;56376;53.356;-1.748;2022-10-16T11:11:25;98949.03;;;15.27;53.96
69257;BME280;56376;53.356;-1.748;2022-10-16T11:14:00;98954.34;;;15.40;53.48
69257;BME280;56376;53.356;-1.748;2022-10-16T11:16:44;98955.41;;;15.50;52.34
69257;BME280;56376;53.356;-1.748;2022-10-16T11:22:19;98954.59;;;15.50;50.51
69257;BME280;56376;53.356;-1.748;2022-10-16T11:24:50;98947.53;;;15.50;51.07
69257;BME280;56376;53.356;-1.748;2022-10-16T11:27:23;98948.34;;;15.51;50.17
69257;BME280;56376;53.356;-1.748;2022-10-16T11:30:02;98943.09;;;15.51;50.47
69257;BME280;56376;53.356;-1.748;2022-10-16T11:32:32;98942.78;;;15.55;51.08
69257;BME280;56376;53.356;-1.748;2022-10-16T11:35:11;98947.09;;;15.56;51.62
69257;BME280;56376;53.356;-1.748;2022-10-16T11:37:43;98933.41;;;15.51;50.80
69257;BME280;56376;53.356;-1.748;2022-10-16T11:42:58;98945.34;;;15.30;51.50
69257;BME280;56376;53.356;-1.748;2022-10-16T11:46:02;98934.38;;;15.23;51.98
69257;BME280;56376;53.356;-1.748;2022-10-16T11:49:18;98937.28;;;15.19;51.83
69257;BME280;56376;53.356;-1.748;2022-10-16T11:54:00;98948.56;;;15.21;51.50
69257;BME280;56376;53.356;-1.748;2022-10-16T11:56:29;98949.94;;;15.26;51.71
69257;BME280;56376;53.356;-1.748;2022-10-16T11:59:04;98948.69;;;15.32;50.85
69257;BME280;56376;53.356;-1.748;2022-10-16T12:01:42;98947.28;;;15.41;50.94
69257;BME280;56376;53.356;-1.748;2022-10-16T12:04:36;98942.59;;;15.58;51.66
69257;BME280;56376;53.356;-1.748;2022-10-16T12:07:14;98944.97;;;15.76;51.25
69257;BME280;56376;53.356;-1.748;2022-10-16T12:09:41;98934.47;;;15.89;50.33
69257;BME280;56376;53.356;-1.748;2022-10-16T12:12:48;98937.31;;;15.98;49.89
69257;BME280;56376;53.356;-1.748;2022-10-16T12:15:22;98954.81;;;16.12;48.83
69257;BME280;56376;53.356;-1.748;2022-10-16T12:17:49;98957.34;;;16.14;48.62
69257;BME280;56376;53.356;-1.748;2022-10-16T12:20:21;98977.81;;;16.10;47.55
69257;BME280;56376;53.356;-1.748;2022-10-16T12:22:54;98979.03;;;16.05;48.61
69257;BME280;56376;53.356;-1.748;2022-10-16T12:25:28;98978.81;;;15.95;48.74
69257;BME280;56376;53.356;-1.748;2022-10-16T12:28:05;98965.44;;;15.85;49.42
69257;BME280;56376;53.356;-1.748;2022-10-16T12:30:34;98975.06;;;15.72;49.56
69257;BME280;56376;53.356;-1.748;2022-10-16T12:33:03;98973.34;;;15.58;49.53
69257;BME280;56376;53.356;-1.748;2022-10-16T12:35:33;98968.56;;;15.50;50.68
69257;BME280;56376;53.356;-1.748;2022-10-16T12:38:19;98980.16;;;15.48;51.27
69257;BME280;56376;53.356;-1.748;2022-10-16T12:40:47;98984.66;;;15.46;51.04
69257;BME280;56376;53.356;-1.748;2022-10-16T12:45:45;98979.69;;;15.41;51.00
69257;BME280;56376;53.356;-1.748;2022-10-16T12:48:22;98975.47;;;15.39;50.71
69257;BME280;56376;53.356;-1.748;2022-10-16T12:50:48;98963.56;;;15.33;50.37
69257;BME280;56376;53.356;-1.748;2022-10-16T12:53:26;98983.56;;;15.35;50.67
69257;BME280;56376;53.356;-1.748;2022-10-16T12:56:04;98980.09;;;15.35;50.65
69257;BME280;56376;53.356;-1.748;2022-10-16T12:58:44;98991.47;;;15.35;51.09
69257;BME280;56376;53.356;-1.748;2022-10-16T13:01:36;98988.28;;;15.30;50.59
69257;BME280;56376;53.356;-1.748;2022-10-16T13:07:00;98987.44;;;15.30;51.25
69257;BME280;56376;53.356;-1.748;2022-10-16T13:15:22;98988.00;;;15.35;52.32
69257;BME280;56376;53.356;-1.748;2022-10-16T13:18:02;98991.06;;;15.42;51.85
69257;BME280;56376;53.356;-1.748;2022-10-16T13:20:38;98980.34;;;15.45;50.62
69257;BME280;56376;53.356;-1.748;2022-10-16T13:29:00;98978.25;;;15.50;49.43
69257;BME280;56376;53.356;-1.748;2022-10-16T13:31:26;98976.56;;;15.49;49.71
69257;BME280;56376;53.356;-1.748;2022-10-16T13:33:55;98971.50;;;15.46;49.24
69257;BME280;56376;53.356;-1.748;2022-10-16T13:36:28;98968.31;;;15.41;48.91
69257;BME280;56376;53.356;-1.748;2022-10-16T13:41:38;98959.97;;;15.34;50.18
69257;BME280;56376;53.356;-1.748;2022-10-16T13:44:05;98964.59;;;15.30;50.03
69257;BME280;56376;53.356;-1.748;2022-10-16T13:46:38;98963.22;;;15.25;49.99
69257;BME280;56376;53.356;-1.748;2022-10-16T13:49:14;98969.63;;;15.21;50.25
69257;BME280;56376;53.356;-1.748;2022-10-16T13:51:40;98966.44;;;15.15;50.29
69257;BME280;56376;53.356;-1.748;2022-10-16T13:54:09;98972.66;;;15.14;50.41
69257;BME280;56376;53.356;-1.748;2022-10-16T13:56:38;98979.66;;;15.14;50.42
69257;BME280;56376;53.356;-1.748;2022-10-16T13:59:07;98975.28;;;15.14;50.90
69257;BME280;56376;53.356;-1.748;2022-10-16T14:01:47;98977.16;;;15.12;50.78
69257;BME280;56376;53.356;-1.748;2022-10-16T14:04:13;98976.50;;;15.09;50.61
69257;BME280;56376;53.356;-1.748;2022-10-16T14:06:42;98980.00;;;15.09;51.17
69257;BME280;56376;53.356;-1.748;2022-10-16T14:09:17;98973.03;;;15.08;50.70
69257;BME280;56376;53.356;-1.748;2022-10-16T14:11:49;98968.59;;;15.09;50.97
69257;BME280;56376;53.356;-1.748;2022-10-16T14:14:17;98973.16;;;15.07;50.84
69257;BME280;56376;53.356;-1.748;2022-10-16T14:16:44;98968.06;;;15.04;51.39
69257;BME280;56376;53.356;-1.748;2022-10-16T14:19:18;98971.44;;;15.06;52.08
69257;BME280;56376;53.356;-1.748;2022-10-16T14:21:44;98982.91;;;15.05;52.46
69257;BME280;56376;53.356;-1.748;2022-10-16T14:24:11;98996.16;;;15.03;52.19
69257;BME280;56376;53.356;-1.748;2022-10-16T14:26:42;98994.34;;;15.04;52.25
69257;BME280;56376;53.356;-1.748;2022-10-16T14:29:14;99001.50;;;15.02;53.28
69257;BME280;56376;53.356;-1.748;2022-10-16T14:31:41;99007.06;;;14.97;53.58
69257;BME280;56376;53.356;-1.748;2022-10-16T14:34:36;99004.91;;;14.89;54.02
69257;BME280;56376;53.356;-1.748;2022-10-16T14:37:15;98999.19;;;14.83;54.79
69257;BME280;56376;53.356;-1.748;2022-10-16T14:39:51;98990.75;;;14.78;54.99
69257;BME280;56376;53.356;-1.748;2022-10-16T14:42:19;98994.59;;;14.72;56.00